Time;durP1;ratioP1;P1;durP2;ratioP2;P2;SDS_P1;SDS_P2;PMS_P1;PMS_P2;Temp;Humidity;BMP_temperature;BMP_pressure;BME280_temperature;BME280_humidity;BME280_pressure;Samples;Min_cycle;Max_cycle;Signal;HPM_P1;HPM_P2
2023/05/31 00:00:00;;;;;;;7.82;4.22;;;12.40;99.90;;;;;;5102757;27;20458;-75
2023/05/31 00:02:25;;;;;;;7.78;3.50;;;12.40;99.90;;;;;;5125796;27;20126;-75
2023/05/31 00:04:51;;;;;;;6.57;3.90;;;12.40;99.90;;;;;;5097189;27;20043;-78
2023/05/31 00:07:17;;;;;;;7.68;3.97;;;12.40;99.90;;;;;;5117721;27;20437;-75
2023/05/31 00:09:43;;;;;;;8.55;3.83;;;12.40;99.90;;;;;;5085600;27;20043;-76
2023/05/31 00:12:09;;;;;;;7.18;3.92;;;12.40;99.90;;;;;;5123591;27;20046;-76
2023/05/31 00:14:34;;;;;;;9.63;4.47;;;12.40;99.90;;;;;;5117757;27;20157;-76
2023/05/31 00:17:05;;;;;;;9.52;4.30;;;12.30;99.90;;;;;;5116947;27;20320;-75
2023/05/31 00:19:30;;;;;;;7.65;3.92;;;12.30;99.90;;;;;;5088441;27;20512;-75
2023/05/31 00:21:56;;;;;;;10.23;4.82;;;12.30;99.90;;;;;;5108975;27;20057;-75
2023/05/31 00:24:22;;;;;;;7.47;4.22;;;12.30;99.90;;;;;;5119006;27;20055;-74
2023/05/31 00:26:48;;;;;;;8.63;4.32;;;12.30;99.90;;;;;;5104066;27;20096;-75
2023/05/31 00:29:14;;;;;;;8.27;3.95;;;12.40;99.90;;;;;;5114743;27;20035;-75
2023/05/31 00:31:43;;;;;;;9.77;4.45;;;12.40;99.90;;;;;;5098901;27;20440;-75
2023/05/31 00:34:10;;;;;;;8.27;3.95;;;12.40;99.90;;;;;;5123166;27;20061;-75
2023/05/31 00:36:36;;;;;;;11.13;4.53;;;12.30;99.90;;;;;;5114832;27;20112;-75
2023/05/31 00:39:03;;;;;;;9.23;4.10;;;12.40;99.90;;;;;;5094853;27;20398;-75
2023/05/31 00:41:29;;;;;;;7.72;4.53;;;12.40;99.90;;;;;;5102680;27;20078;-74
2023/05/31 00:43:55;;;;;;;9.18;4.82;;;12.40;99.90;;;;;;5098318;27;20097;-78
2023/05/31 00:46:33;;;;;;;9.13;4.25;;;12.40;99.90;;;;;;5096278;27;20058;-78
2023/05/31 00:48:59;;;;;;;14.13;4.50;;;12.40;99.90;;;;;;5083386;27;20047;-75
2023/05/31 00:51:28;;;;;;;10.55;4.82;;;12.40;99.90;;;;;;5118926;27;20058;-75
2023/05/31 00:53:55;;;;;;;8.60;4.13;;;12.40;99.90;;;;;;5103862;27;20855;-76
2023/05/31 00:56:28;;;;;;;8.13;4.40;;;12.40;99.90;;;;;;5087590;27;20058;-75
2023/05/31 00:59:02;;;;;;;9.20;4.30;;;12.30;99.90;;;;;;5105352;27;20107;-76
2023/05/31 01:01:32;;;;;;;7.55;4.20;;;12.30;99.90;;;;;;5116360;27;20045;-75
2023/05/31 01:03:59;;;;;;;7.63;4.03;;;12.30;99.90;;;;;;5120541;27;20051;-75
2023/05/31 01:06:25;;;;;;;8.50;4.18;;;12.30;99.90;;;;;;5105267;27;20684;-75
2023/05/31 01:08:54;;;;;;;8.77;4.10;;;12.30;99.90;;;;;;5118110;27;20100;-75
2023/05/31 01:11:28;;;;;;;10.07;4.20;;;12.30;99.90;;;;;;5101563;27;20067;-75
2023/05/31 01:14:27;;;;;;;8.45;4.05;;;12.30;99.90;;;;;;5115039;27;20046;-76
2023/05/31 01:17:22;;;;;;;10.15;4.20;;;12.30;99.90;;;;;;5097812;27;20073;-74
2023/05/31 01:19:56;;;;;;;10.38;4.35;;;12.20;99.90;;;;;;5114675;27;20043;-74
2023/05/31 01:23:14;;;;;;;7.70;4.10;;;12.20;99.90;;;;;;5124476;27;20401;-75
2023/05/31 01:26:18;;;;;;;9.98;4.55;;;12.20;99.90;;;;;;5066732;27;20059;-75
2023/05/31 01:28:55;;;;;;;7.28;4.20;;;12.20;99.90;;;;;;5107105;27;20161;-75
2023/05/31 01:31:22;;;;;;;8.30;3.88;;;12.10;99.90;;;;;;5129152;27;20043;-75
2023/05/31 01:33:53;;;;;;;8.27;3.90;;;12.10;99.90;;;;;;5094999;27;20065;-75
2023/05/31 01:36:19;;;;;;;7.50;4.30;;;12.00;99.90;;;;;;5118453;27;20754;-75
2023/05/31 01:38:48;;;;;;;8.10;4.15;;;11.90;99.90;;;;;;5141410;27;20137;-75
2023/05/31 01:41:15;;;;;;;10.30;4.68;;;11.90;99.90;;;;;;5102140;27;20082;-75
2023/05/31 01:43:44;;;;;;;9.43;4.63;;;11.80;99.90;;;;;;5117703;27;20402;-78
2023/05/31 01:46:12;;;;;;;9.05;5.13;;;11.10;99.90;;;;;;5081495;27;20066;-75
2023/05/31 01:48:40;;;;;;;8.45;4.22;;;11.80;99.90;;;;;;5127171;27;20099;-75
2023/05/31 01:51:10;;;;;;;9.10;4.82;;;11.70;99.90;;;;;;5125438;27;20054;-76
2023/05/31 01:53:39;;;;;;;9.43;4.57;;;11.70;99.90;;;;;;5103382;27;20430;-75
2023/05/31 01:56:08;;;;;;;10.73;4.32;;;11.60;99.90;;;;;;5106969;27;20055;-75
2023/05/31 01:58:36;;;;;;;12.07;4.47;;;11.50;99.90;;;;;;5124646;27;20487;-78
2023/05/31 02:01:02;;;;;;;7.57;4.10;;;11.50;99.90;;;;;;5126363;27;20078;-75
2023/05/31 02:03:28;;;;;;;9.30;4.57;;;11.50;99.90;;;;;;5121963;27;20412;-75
2023/05/31 02:05:58;;;;;;;8.38;4.72;;;11.40;99.90;;;;;;5096888;27;20102;-77
2023/05/31 02:08:26;;;;;;;7.55;4.45;;;11.40;99.90;;;;;;5122421;27;20126;-76
2023/05/31 02:10:53;;;;;;;6.85;4.13;;;11.30;99.90;;;;;;5128910;27;20053;-76
2023/05/31 02:13:20;;;;;;;10.68;4.57;;;11.30;99.90;;;;;;5101779;27;20051;-74
2023/05/31 02:15:45;;;;;;;7.53;3.92;;;11.20;99.90;;;;;;5097121;27;20051;-74
2023/05/31 02:18:12;;;;;;;7.43;4.70;;;11.10;99.90;;;;;;5085339;27;20058;-76
2023/05/31 02:20:38;;;;;;;8.80;4.22;;;11.10;99.90;;;;;;5081058;27;20397;-76
2023/05/31 02:23:04;;;;;;;9.48;4.90;;;11.10;99.90;;;;;;5121401;27;20070;-75
2023/05/31 02:25:30;;;;;;;8.57;4.28;;;11.00;99.90;;;;;;5126504;27;20058;-77
2023/05/31 02:28:03;;;;;;;9.90;4.40;;;11.00;99.90;;;;;;5130038;27;20107;-75
2023/05/31 02:30:31;;;;;;;12.73;4.90;;;10.90;99.90;;;;;;5129469;27;20438;-74
2023/05/31 02:33:03;;;;;;;10.35;4.53;;;10.90;99.90;;;;;;5130505;27;20142;-75
2023/05/31 02:35:28;;;;;;;9.00;4.18;;;10.90;99.90;;;;;;5071836;27;20054;-75
2023/05/31 02:37:54;;;;;;;8.13;4.05;;;10.80;99.90;;;;;;5089839;27;20050;-76
2023/05/31 02:40:20;;;;;;;11.70;5.25;;;10.80;99.90;;;;;;5085797;27;20049;-74
2023/05/31 02:42:46;;;;;;;13.20;5.78;;;10.80;99.90;;;;;;5114901;27;20051;-75
2023/05/31 02:45:12;;;;;;;9.00;4.15;;;10.70;99.90;;;;;;5097976;27;20046;-77
2023/05/31 02:47:39;;;;;;;7.85;4.22;;;10.70;99.90;;;;;;5107151;27;20126;-74
2023/05/31 02:50:07;;;;;;;8.60;4.45;;;10.70;99.90;;;;;;5123152;27;20065;-78
2023/05/31 02:52:37;;;;;;;9.02;4.50;;;10.60;99.90;;;;;;5141238;27;20035;-74
2023/05/31 02:55:09;;;;;;;8.93;3.88;;;10.60;99.90;;;;;;5140045;27;20069;-76
2023/05/31 02:57:38;;;;;;;6.38;4.15;;;10.60;99.90;;;;;;5111804;27;20098;-74
2023/05/31 03:00:10;;;;;;;9.85;4.32;;;10.60;99.90;;;;;;5107323;27;20079;-75
2023/05/31 03:02:37;;;;;;;8.18;3.65;;;10.50;99.90;;;;;;5084764;27;20101;-75
2023/05/31 03:05:04;;;;;;;11.20;4.20;;;10.50;99.90;;;;;;5084381;27;20046;-74
2023/05/31 03:07:30;;;;;;;13.77;4.30;;;10.50;99.90;;;;;;5122394;27;20171;-76
2023/05/31 03:10:06;;;;;;;9.85;4.43;;;10.50;99.90;;;;;;5105916;27;20153;-74
2023/05/31 03:12:34;;;;;;;12.48;4.50;;;10.50;99.90;;;;;;5086824;27;20135;-74
2023/05/31 03:15:06;;;;;;;9.50;4.88;;;10.40;99.90;;;;;;5116584;27;20458;-74
2023/05/31 03:17:31;;;;;;;9.65;4.22;;;10.40;99.90;;;;;;5105027;27;20092;-75
2023/05/31 03:20:00;;;;;;;10.60;4.85;;;10.40;99.90;;;;;;5141008;27;20046;-74
2023/05/31 03:22:26;;;;;;;11.10;4.57;;;10.40;99.90;;;;;;5106577;27;20057;-75
2023/05/31 03:24:55;;;;;;;9.13;4.53;;;10.40;99.90;;;;;;5128339;27;20046;-76
2023/05/31 03:27:22;;;;;;;11.65;4.82;;;10.40;99.90;;;;;;5119109;27;20050;-74
2023/05/31 03:29:50;;;;;;;10.50;4.70;;;10.30;99.90;;;;;;5128299;27;20046;-75
2023/05/31 03:32:17;;;;;;;10.15;4.93;;;10.30;99.90;;;;;;5113923;27;20058;-74
2023/05/31 03:34:48;;;;;;;9.40;4.85;;;10.30;99.90;;;;;;5103079;27;20078;-74
2023/05/31 03:37:15;;;;;;;10.10;4.78;;;10.30;99.90;;;;;;5095867;27;20397;-75
2023/05/31 03:39:41;;;;;;;9.57;5.22;;;10.40;99.90;;;;;;5079368;27;20055;-77
2023/05/31 03:42:07;;;;;;;10.45;4.95;;;10.30;99.90;;;;;;5119692;27;20046;-74
2023/05/31 03:47:12;;;;;;;10.35;5.30;;;10.40;99.90;;;;;;5115538;27;20418;-74
2023/05/31 03:49:38;;;;;;;13.00;5.15;;;10.40;99.90;;;;;;5087684;28;20476;-74
2023/05/31 03:52:04;;;;;;;10.52;4.93;;;10.40;99.90;;;;;;5070539;28;20136;-74
2023/05/31 03:54:30;;;;;;;11.23;5.35;;;10.40;99.90;;;;;;5087126;28;20089;-75
2023/05/31 03:56:56;;;;;;;10.63;5.10;;;10.40;99.90;;;;;;5086663;28;20130;-74
2023/05/31 03:59:22;;;;;;;11.65;5.55;;;10.40;99.90;;;;;;5087596;28;20040;-75
2023/05/31 04:01:47;;;;;;;12.07;5.40;;;10.40;99.90;;;;;;5104032;28;20563;-74
2023/05/31 04:04:19;;;;;;;13.68;5.20;;;10.40;99.90;;;;;;5088300;28;20046;-73
2023/05/31 04:06:46;;;;;;;10.60;5.78;;;10.40;99.90;;;;;;5082914;28;20044;-74
2023/05/31 04:09:12;;;;;;;10.10;4.82;;;10.50;99.90;;;;;;5053316;28;20132;-75
2023/05/31 04:11:41;;;;;;;8.70;4.78;;;10.50;99.90;;;;;;5087440;28;20047;-75
2023/05/31 04:14:06;;;;;;;11.73;5.38;;;10.50;99.90;;;;;;5103774;28;20522;-76
2023/05/31 04:16:32;;;;;;;12.93;5.47;;;10.60;99.90;;;;;;5102330;28;20056;-74
2023/05/31 04:18:58;;;;;;;13.27;5.65;;;10.60;99.90;;;;;;5070263;28;20135;-75
2023/05/31 04:21:28;;;;;;;9.88;4.97;;;10.60;99.90;;;;;;5087479;28;20402;-75
2023/05/31 04:23:54;;;;;;;11.05;5.25;;;10.70;99.90;;;;;;5087016;28;20561;-75
2023/05/31 04:26:23;;;;;;;10.35;4.88;;;10.70;99.90;;;;;;5104635;28;20070;-75
2023/05/31 04:28:51;;;;;;;10.68;5.15;;;10.70;99.90;;;;;;5101863;28;20096;-75
2023/05/31 04:31:19;;;;;;;12.65;5.68;;;10.80;99.90;;;;;;5086958;28;20074;-75
2023/05/31 04:33:45;;;;;;;8.88;5.00;;;10.80;99.90;;;;;;5104473;28;20625;-75
2023/05/31 04:36:14;;;;;;;9.77;4.95;;;10.90;99.90;;;;;;5103247;28;20128;-75
2023/05/31 04:38:41;;;;;;;13.18;6.07;;;10.90;99.90;;;;;;5085291;28;20055;-74
2023/05/31 04:41:07;;;;;;;13.48;5.18;;;10.90;99.90;;;;;;5086764;28;20051;-75
2023/05/31 04:43:39;;;;;;;12.98;5.63;;;10.90;99.90;;;;;;5103581;28;20060;-75
2023/05/31 04:46:05;;;;;;;11.02;5.25;;;11.00;99.90;;;;;;5086555;28;20051;-75
2023/05/31 04:48:32;;;;;;;11.40;5.55;;;11.10;99.90;;;;;;5102459;28;20044;-74
2023/05/31 04:50:58;;;;;;;10.55;5.60;;;11.10;99.90;;;;;;5086403;28;20048;-75
2023/05/31 04:53:25;;;;;;;13.02;5.13;;;11.10;99.90;;;;;;5086402;28;20117;-75
2023/05/31 04:55:51;;;;;;;9.52;4.97;;;11.20;99.90;;;;;;5085723;28;20558;-75
2023/05/31 04:58:20;;;;;;;12.23;5.20;;;11.20;99.90;;;;;;5091361;28;20105;-74
2023/05/31 05:00:46;;;;;;;11.30;5.72;;;11.30;99.90;;;;;;5089034;28;20387;-75
2023/05/31 05:03:18;;;;;;;17.17;6.00;;;11.30;99.90;;;;;;5074163;28;20046;-75
2023/05/31 05:05:45;;;;;;;9.10;6.05;;;11.40;99.90;;;;;;5072390;28;20036;-75
2023/05/31 05:08:23;;;;;;;12.68;5.72;;;11.40;99.90;;;;;;5059172;28;20055;-75
2023/05/31 05:10:49;;;;;;;11.75;6.30;;;11.50;99.90;;;;;;5087078;28;20095;-75
2023/05/31 05:13:16;;;;;;;13.43;6.47;;;11.60;99.90;;;;;;5072384;28;20091;-75
2023/05/31 05:15:45;;;;;;;14.82;6.50;;;11.60;99.90;;;;;;5056435;28;20056;-75
2023/05/31 05:18:14;;;;;;;15.23;5.80;;;12.40;99.90;;;;;;5073263;28;20047;-75
2023/05/31 05:20:43;;;;;;;11.60;6.20;;;11.80;99.90;;;;;;5065066;28;20048;-75
2023/05/31 05:23:10;;;;;;;14.07;6.30;;;11.80;99.90;;;;;;5073706;28;20066;-75
2023/05/31 05:25:40;;;;;;;18.20;6.40;;;11.90;99.90;;;;;;5107628;28;20051;-74
2023/05/31 05:28:07;;;;;;;12.35;6.28;;;12.00;99.90;;;;;;5106473;28;20048;-74
2023/05/31 05:30:34;;;;;;;14.70;5.72;;;12.10;99.90;;;;;;5088174;28;20405;-74
2023/05/31 05:33:04;;;;;;;14.25;6.22;;;12.20;99.90;;;;;;5091578;28;20272;-74
2023/05/31 05:35:32;;;;;;;11.70;6.45;;;12.20;99.90;;;;;;5090389;28;20842;-74
2023/05/31 05:38:04;;;;;;;8.45;6.07;;;12.30;99.90;;;;;;5058807;28;20504;-73
2023/05/31 05:40:30;;;;;;;14.23;6.95;;;12.40;99.90;;;;;;5072654;28;20059;-74
2023/05/31 05:42:57;;;;;;;13.38;6.65;;;12.50;99.90;;;;;;5072966;28;20051;-73
2023/05/31 05:45:23;;;;;;;13.95;6.32;;;12.60;99.90;;;;;;5051173;28;20055;-74
2023/05/31 05:47:49;;;;;;;17.25;6.68;;;12.70;99.90;;;;;;5090805;28;20058;-74
2023/05/31 05:50:15;;;;;;;15.07;7.93;;;12.80;99.90;;;;;;5055959;28;20081;-74
2023/05/31 05:52:42;;;;;;;15.05;6.80;;;12.90;99.90;;;;;;5088087;28;20429;-75
2023/05/31 05:55:09;;;;;;;12.18;6.57;;;13.00;99.90;;;;;;5064223;28;20503;-73
2023/05/31 05:57:36;;;;;;;10.43;6.10;;;13.10;99.90;;;;;;5052699;28;20052;-74
2023/05/31 06:00:10;;;;;;;15.50;6.45;;;13.30;99.90;;;;;;5047559;28;20048;-74
2023/05/31 06:02:38;;;;;;;14.80;7.70;;;13.40;99.90;;;;;;5055695;28;20052;-74
2023/05/31 06:05:10;;;;;;;12.23;7.03;;;13.50;99.90;;;;;;5088753;28;20051;-75
2023/05/31 06:07:36;;;;;;;14.77;7.85;;;13.80;99.90;;;;;;5055135;28;20056;-73
2023/05/31 06:10:02;;;;;;;14.48;7.60;;;13.80;99.90;;;;;;5052480;28;20055;-74
2023/05/31 06:12:34;;;;;;;12.68;7.63;;;13.90;99.90;;;;;;5071911;28;20075;-74
2023/05/31 06:15:02;;;;;;;12.38;7.70;;;14.00;99.90;;;;;;5046369;28;20048;-74
2023/05/31 06:17:31;;;;;;;13.73;7.28;;;14.20;99.90;;;;;;5055712;28;20048;-74
2023/05/31 06:20:09;;;;;;;11.50;6.70;;;15.60;99.90;;;;;;5071881;28;20533;-74
2023/05/31 06:22:42;;;;;;;13.90;6.78;;;14.50;99.90;;;;;;5042137;28;20054;-75
2023/05/31 06:25:08;;;;;;;12.82;5.90;;;14.60;99.90;;;;;;5087817;28;20043;-74
2023/05/31 06:27:35;;;;;;;10.23;6.30;;;14.80;99.90;;;;;;5086604;28;20159;-75
2023/05/31 06:30:14;;;;;;;12.32;6.63;;;14.90;99.90;;;;;;5081328;28;20169;-74
2023/05/31 06:32:39;;;;;;;10.82;5.95;;;15.10;99.90;;;;;;5085460;28;20959;-75
2023/05/31 06:35:10;;;;;;;10.63;6.15;;;15.20;99.90;;;;;;5087336;28;20040;-74
2023/05/31 06:37:37;;;;;;;12.32;5.63;;;15.30;99.90;;;;;;5070730;28;20377;-74
2023/05/31 06:40:06;;;;;;;10.40;5.60;;;15.40;99.90;;;;;;5070606;28;20387;-75
2023/05/31 06:42:35;;;;;;;11.45;5.80;;;15.50;99.90;;;;;;5088246;28;20056;-75
2023/05/31 06:45:08;;;;;;;13.48;5.40;;;15.60;99.90;;;;;;5087411;28;20523;-75
2023/05/31 06:47:48;;;;;;;9.60;5.25;;;15.70;99.90;;;;;;5087419;28;20062;-75
2023/05/31 06:50:14;;;;;;;11.85;4.85;;;15.80;99.90;;;;;;5046254;28;20104;-74
2023/05/31 06:52:44;;;;;;;13.10;5.28;;;16.90;99.90;;;;;;5027525;28;20068;-75
2023/05/31 06:55:15;;;;;;;10.85;4.30;;;15.90;99.90;;;;;;5045241;28;20059;-75
2023/05/31 06:57:47;;;;;;;11.60;4.70;;;16.00;99.90;;;;;;5029550;28;20168;-75
2023/05/31 07:00:25;;;;;;;10.38;4.80;;;16.10;99.90;;;;;;5013477;28;20110;-74
2023/05/31 07:03:20;;;;;;;7.57;4.60;;;16.20;99.90;;;;;;5031692;28;20098;-75
2023/05/31 07:05:47;;;;;;;8.90;4.05;;;16.40;99.90;;;;;;5044319;28;20484;-75
2023/05/31 07:08:21;;;;;;;9.73;4.28;;;16.60;99.90;;;;;;5029278;28;20121;-74
2023/05/31 07:10:58;;;;;;;9.45;4.53;;;16.70;99.90;;;;;;5045426;28;20071;-74
2023/05/31 07:13:28;;;;;;;6.55;4.05;;;16.70;99.90;;;;;;5011960;28;20068;-74
2023/05/31 07:16:01;;;;;;;9.82;4.65;;;16.90;99.90;;;;;;5029496;28;20083;-74
2023/05/31 07:18:42;;;;;;;8.70;3.38;;;17.00;99.90;;;;;;5016939;28;20383;-75
2023/05/31 07:21:10;;;;;;;9.45;4.20;;;17.00;99.90;;;;;;5051974;28;20113;-74
2023/05/31 07:23:37;;;;;;;7.65;3.72;;;17.10;99.90;;;;;;5085379;28;20044;-75
2023/05/31 07:26:15;;;;;;;7.63;3.80;;;17.40;99.90;;;;;;5084513;28;20176;-74
2023/05/31 07:28:43;;;;;;;8.18;3.60;;;17.70;99.90;;;;;;5070439;28;20154;-76
2023/05/31 07:31:25;;;;;;;6.07;3.70;;;18.00;99.90;;;;;;5073046;28;20055;-75
2023/05/31 07:33:55;;;;;;;6.75;3.47;;;18.20;99.90;;;;;;5070182;28;20054;-74
2023/05/31 07:36:31;;;;;;;6.03;3.13;;;18.30;99.90;;;;;;5086119;28;20451;-74
2023/05/31 07:39:05;;;;;;;6.90;3.40;;;18.30;99.90;;;;;;5073650;28;20141;-74
2023/05/31 07:41:31;;;;;;;5.88;3.33;;;18.30;99.90;;;;;;5087474;28;20052;-75
2023/05/31 07:43:59;;;;;;;6.68;2.92;;;18.40;99.90;;;;;;5070243;28;20142;-75
2023/05/31 07:46:26;;;;;;;7.60;3.63;;;18.60;99.90;;;;;;5085278;28;20520;-75
2023/05/31 07:48:59;;;;;;;7.40;3.58;;;18.80;99.90;;;;;;5083389;28;20138;-75
2023/05/31 07:51:29;;;;;;;5.47;3.25;;;18.80;99.90;;;;;;5070440;28;20107;-76
2023/05/31 07:53:59;;;;;;;7.25;3.60;;;18.90;99.90;;;;;;5089103;28;20117;-75
2023/05/31 07:56:55;;;;;;;7.50;3.13;;;19.00;99.90;;;;;;5086068;28;20073;-76
2023/05/31 07:59:25;;;;;;;6.03;2.83;;;19.40;99.90;;;;;;5103638;28;20139;-75
2023/05/31 08:02:10;;;;;;;7.38;3.72;;;19.70;99.90;;;;;;5064069;28;20059;-75
2023/05/31 08:04:45;;;;;;;8.55;3.20;;;19.80;99.90;;;;;;5073023;28;20090;-75
2023/05/31 08:07:20;;;;;;;10.68;3.78;;;20.00;99.90;;;;;;5086298;28;20108;-75
2023/05/31 08:09:52;;;;;;;6.40;3.08;;;19.40;99.90;;;;;;5086790;28;20055;-76
2023/05/31 08:12:25;;;;;;;6.85;3.05;;;19.30;99.90;;;;;;5039604;28;20063;-76
2023/05/31 08:14:55;;;;;;;8.32;3.22;;;19.20;99.90;;;;;;5098399;28;20109;-77
2023/05/31 08:17:50;;;;;;;7.00;3.47;;;19.10;99.90;;;;;;5087324;28;20066;-75
2023/05/31 08:20:25;;;;;;;7.65;3.40;;;19.10;99.90;;;;;;5087586;28;20079;-75
2023/05/31 08:22:53;;;;;;;7.82;3.03;;;19.20;99.90;;;;;;5072490;28;20056;-75
2023/05/31 08:25:32;;;;;;;7.20;3.70;;;19.40;99.90;;;;;;5071400;28;20486;-75
2023/05/31 08:28:13;;;;;;;7.60;3.45;;;19.50;99.90;;;;;;5103059;28;20085;-76
2023/05/31 08:30:50;;;;;;;8.48;3.20;;;19.40;99.90;;;;;;5054426;28;20117;-74
2023/05/31 08:33:19;;;;;;;7.40;3.05;;;19.90;99.90;;;;;;5090593;28;20044;-73
2023/05/31 08:35:59;;;;;;;8.95;3.63;;;19.80;99.90;;;;;;5091799;28;20040;-73
2023/05/31 08:38:30;;;;;;;9.30;3.17;;;19.80;99.90;;;;;;5074373;28;20047;-74
2023/05/31 08:41:00;;;;;;;7.45;2.78;;;20.70;99.90;;;;;;5090559;28;20787;-75
2023/05/31 08:43:28;;;;;;;8.95;2.78;;;20.10;99.90;;;;;;5091469;28;20071;-74
2023/05/31 08:45:56;;;;;;;6.18;3.03;;;20.10;99.90;;;;;;5066029;28;20184;-74
2023/05/31 08:48:58;;;;;;;9.80;3.28;;;20.00;99.90;;;;;;5089415;28;20067;-74
2023/05/31 08:51:37;;;;;;;7.65;2.75;;;20.10;99.90;;;;;;5092688;28;20143;-75
2023/05/31 08:54:07;;;;;;;7.65;3.17;;;20.20;99.90;;;;;;5074755;28;20044;-73
2023/05/31 08:56:45;;;;;;;9.25;3.03;;;20.10;99.90;;;;;;5107828;28;20044;-75
2023/05/31 08:59:23;;;;;;;7.40;3.15;;;20.00;99.90;;;;;;5076152;28;20056;-75
2023/05/31 09:01:52;;;;;;;8.88;2.88;;;20.10;99.90;;;;;;5092440;28;20287;-75
2023/05/31 09:04:40;;;;;;;7.95;2.92;;;20.20;99.90;;;;;;5091359;28;20040;-74
2023/05/31 09:07:15;;;;;;;7.97;3.38;;;20.30;99.90;;;;;;5074173;28;20127;-75
2023/05/31 09:09:44;;;;;;;7.25;2.85;;;20.30;99.90;;;;;;5065319;28;20051;-74
2023/05/31 09:12:16;;;;;;;9.35;3.08;;;20.50;99.90;;;;;;5090771;28;20124;-74
2023/05/31 09:14:43;;;;;;;7.88;3.05;;;20.60;99.90;;;;;;5089276;28;20234;-75
2023/05/31 09:17:21;;;;;;;7.70;3.10;;;20.80;99.90;;;;;;5089192;28;20139;-73
2023/05/31 09:19:53;;;;;;;7.25;2.92;;;20.70;99.90;;;;;;5105960;28;20056;-74
2023/05/31 09:22:30;;;;;;;7.45;2.97;;;20.80;99.90;;;;;;5089017;28;20074;-75
2023/05/31 09:25:01;;;;;;;5.20;2.85;;;20.80;99.90;;;;;;5088723;28;20414;-74
2023/05/31 09:27:50;;;;;;;8.80;3.20;;;20.90;99.90;;;;;;5082569;28;20130;-75
2023/05/31 09:30:16;;;;;;;8.63;2.90;;;21.00;99.90;;;;;;5106301;28;20058;-74
2023/05/31 09:32:58;;;;;;;6.35;2.47;;;20.90;99.90;;;;;;5055485;28;20071;-75
2023/05/31 09:35:29;;;;;;;6.65;2.58;;;20.90;99.90;;;;;;5090955;28;20152;-75
2023/05/31 09:37:56;;;;;;;8.50;2.47;;;20.70;99.90;;;;;;5078872;28;20538;-74
2023/05/31 09:40:37;;;;;;;8.00;2.75;;;20.70;99.90;;;;;;5072459;28;20055;-75
2023/05/31 09:43:05;;;;;;;6.85;3.08;;;20.80;99.90;;;;;;5087645;28;20391;-73
2023/05/31 09:45:34;;;;;;;6.78;3.13;;;20.30;99.90;;;;;;5103424;28;20559;-73
2023/05/31 09:48:18;;;;;;;9.77;2.67;;;20.90;99.90;;;;;;5072730;28;20052;-73
2023/05/31 09:50:46;;;;;;;7.45;2.60;;;21.20;99.90;;;;;;5071927;28;20429;-74
2023/05/31 09:53:16;;;;;;;8.95;2.90;;;21.30;99.90;;;;;;5071433;28;20239;-74
2023/05/31 09:55:49;;;;;;;6.80;2.83;;;21.50;99.90;;;;;;5072984;28;20101;-74
2023/05/31 09:58:39;;;;;;;6.80;2.60;;;21.70;99.90;;;;;;5087751;28;20545;-74
2023/05/31 10:01:10;;;;;;;6.57;2.33;;;22.00;99.90;;;;;;5084552;28;20051;-74
2023/05/31 10:03:49;;;;;;;9.27;2.90;;;22.10;99.90;;;;;;5088865;28;20052;-75
2023/05/31 10:06:36;;;;;;;6.85;2.85;;;22.40;99.90;;;;;;5089185;28;20066;-76
2023/05/31 10:09:21;;;;;;;6.32;2.38;;;22.60;99.90;;;;;;5084187;28;20063;-74
2023/05/31 10:11:57;;;;;;;6.88;2.65;;;22.70;99.90;;;;;;5088492;28;20077;-75
2023/05/31 10:14:40;;;;;;;6.65;2.58;;;22.60;99.90;;;;;;5100692;28;20066;-73
2023/05/31 10:17:21;;;;;;;7.13;2.90;;;22.70;99.90;;;;;;5088660;28;20056;-73
2023/05/31 10:20:07;;;;;;;8.00;3.15;;;23.00;99.90;;;;;;5088586;28;20085;-74
2023/05/31 10:22:45;;;;;;;6.97;2.85;;;23.10;99.90;;;;;;5074346;28;20047;-74
2023/05/31 10:25:36;;;;;;;8.80;3.00;;;23.40;99.90;;;;;;5084664;28;20517;-75
2023/05/31 10:28:11;;;;;;;7.78;3.25;;;22.70;99.60;;;;;;5088011;28;20048;-74
2023/05/31 10:30:43;;;;;;;5.03;2.60;;;23.50;99.70;;;;;;5088536;28;20414;-74
2023/05/31 10:33:21;;;;;;;6.75;2.60;;;23.80;99.60;;;;;;5104230;28;20056;-75
2023/05/31 10:36:01;;;;;;;7.13;2.67;;;23.90;99.30;;;;;;5085535;28;20063;-75
2023/05/31 10:38:56;;;;;;;6.00;2.60;;;24.20;98.90;;;;;;5087892;28;20196;-75
2023/05/31 10:41:49;;;;;;;4.28;2.58;;;24.20;97.70;;;;;;5088748;28;20157;-75
2023/05/31 10:44:31;;;;;;;7.78;2.60;;;24.00;98.60;;;;;;5104514;27;20074;-75
2023/05/31 10:47:02;;;;;;;7.68;3.03;;;24.00;98.10;;;;;;5069314;28;20495;-73
2023/05/31 10:49:37;;;;;;;4.57;2.05;;;24.00;97.80;;;;;;5087431;28;20811;-75
2023/05/31 10:52:18;;;;;;;6.65;2.78;;;24.10;97.90;;;;;;5087887;28;20179;-76
2023/05/31 10:54:47;;;;;;;6.03;2.97;;;24.30;97.80;;;;;;5068675;28;20087;-75
2023/05/31 10:57:18;;;;;;;5.57;2.70;;;24.30;97.60;;;;;;5086006;28;20059;-76
2023/05/31 10:59:45;;;;;;;7.03;3.28;;;24.40;97.30;;;;;;5069831;28;20056;-75
2023/05/31 11:02:22;;;;;;;6.57;3.30;;;24.70;97.00;;;;;;5087801;28;20052;-75
2023/05/31 11:05:53;;;;;;;6.43;2.40;;;24.90;96.70;;;;;;5086031;28;20086;-75
2023/05/31 11:09:18;;;;;;;6.05;2.90;;;25.00;95.30;;;;;;5033159;28;20274;-75
2023/05/31 11:11:50;;;;;;;6.07;2.88;;;25.10;95.20;;;;;;5050659;28;20513;-74
2023/05/31 11:14:35;;;;;;;8.20;2.80;;;25.10;96.00;;;;;;5052955;28;20079;-76
2023/05/31 11:17:07;;;;;;;4.68;2.40;;;25.20;94.70;;;;;;5070164;28;20126;-74
2023/05/31 11:19:42;;;;;;;4.47;2.35;;;25.10;95.30;;;;;;5069398;28;20101;-74
2023/05/31 11:22:16;;;;;;;4.70;2.10;;;25.00;95.00;;;;;;5053691;28;20135;-74
2023/05/31 11:25:07;;;;;;;6.47;2.60;;;25.10;94.90;;;;;;5088059;28;20052;-74
2023/05/31 11:27:41;;;;;;;5.35;2.67;;;25.00;93.40;;;;;;5067676;28;20509;-74
2023/05/31 11:30:46;;;;;;;4.53;2.33;;;25.10;94.30;;;;;;5087643;28;20108;-74
2023/05/31 11:33:23;;;;;;;5.40;2.83;;;25.10;93.60;;;;;;5045185;28;20151;-75
2023/05/31 11:36:02;;;;;;;6.47;3.00;;;25.00;94.40;;;;;;5086872;28;20449;-75
2023/05/31 11:38:40;;;;;;;4.75;2.33;;;25.10;94.20;;;;;;5085296;28;20075;-74
2023/05/31 11:41:09;;;;;;;6.45;2.50;;;25.60;94.30;;;;;;5048347;28;20060;-74
2023/05/31 11:43:49;;;;;;;4.65;2.28;;;25.20;94.00;;;;;;5048512;28;20051;-75
2023/05/31 11:46:24;;;;;;;8.25;2.85;;;25.20;93.80;;;;;;5032151;28;20059;-74
2023/05/31 11:48:54;;;;;;;6.05;2.80;;;25.00;93.40;;;;;;5014445;28;20063;-75
2023/05/31 11:51:21;;;;;;;6.50;2.28;;;25.00;93.20;;;;;;5048593;28;20131;-75
2023/05/31 11:53:47;;;;;;;8.43;2.63;;;25.10;93.70;;;;;;5047338;28;20129;-74
2023/05/31 11:56:19;;;;;;;6.78;2.83;;;25.10;93.40;;;;;;5015269;28;20084;-74
2023/05/31 11:58:51;;;;;;;5.40;2.70;;;25.20;93.20;;;;;;5041123;28;20052;-75
2023/05/31 12:01:17;;;;;;;9.88;3.05;;;25.50;93.00;;;;;;5047142;28;20060;-74
2023/05/31 12:03:43;;;;;;;8.25;2.85;;;25.60;92.80;;;;;;5046000;28;20053;-76
2023/05/31 12:06:11;;;;;;;10.65;2.85;;;25.40;92.40;;;;;;5014272;28;20059;-75
2023/05/31 12:08:38;;;;;;;7.38;2.47;;;25.80;92.10;;;;;;5033950;28;20561;-75
2023/05/31 12:11:27;;;;;;;6.18;2.88;;;26.10;92.10;;;;;;5052434;28;20054;-75
2023/05/31 12:14:11;;;;;;;8.35;2.95;;;25.60;91.20;;;;;;5090474;28;20159;-74
2023/05/31 12:16:37;;;;;;;7.20;3.13;;;25.80;91.40;;;;;;5074614;28;20052;-75
2023/05/31 12:19:25;;;;;;;7.90;3.20;;;26.00;91.40;;;;;;5089975;28;20070;-74
2023/05/31 12:22:01;;;;;;;10.75;3.70;;;26.00;91.20;;;;;;5089681;28;20051;-75
2023/05/31 12:24:27;;;;;;;6.32;3.25;;;26.10;91.10;;;;;;5084411;28;20127;-74
2023/05/31 12:27:13;;;;;;;5.72;3.03;;;25.90;91.10;;;;;;5091397;28;20040;-74
2023/05/31 12:29:45;;;;;;;5.07;2.47;;;26.20;91.10;;;;;;5088696;28;20060;-74
2023/05/31 12:32:21;;;;;;;7.85;2.85;;;26.10;90.80;;;;;;5064624;28;20048;-75
2023/05/31 12:35:08;;;;;;;7.82;3.10;;;26.20;90.10;;;;;;5087450;28;20505;-74
2023/05/31 12:37:54;;;;;;;8.38;3.15;;;26.30;90.10;;;;;;5090090;28;20063;-75
2023/05/31 12:40:25;;;;;;;10.77;3.10;;;26.40;90.10;;;;;;5058046;28;20104;-75
2023/05/31 12:43:01;;;;;;;6.43;2.90;;;26.50;89.90;;;;;;5089406;28;20051;-74
2023/05/31 12:45:27;;;;;;;7.57;3.25;;;26.40;90.00;;;;;;5071015;28;20105;-74
2023/05/31 12:48:09;;;;;;;6.43;3.27;;;26.30;90.00;;;;;;5090520;28;20462;-74
2023/05/31 12:50:56;;;;;;;7.45;3.10;;;26.40;89.40;;;;;;5090752;28;20047;-75
2023/05/31 12:53:30;;;;;;;7.57;3.55;;;26.30;89.50;;;;;;5083281;28;20455;-74
2023/05/31 12:56:01;;;;;;;6.82;2.78;;;26.40;89.60;;;;;;5066824;28;20059;-75
2023/05/31 12:58:36;;;;;;;6.40;2.80;;;26.60;90.00;;;;;;5074335;28;20043;-75
2023/05/31 13:01:09;;;;;;;6.35;3.15;;;26.60;89.40;;;;;;5089730;28;20094;-74
2023/05/31 13:03:53;;;;;;;6.03;3.00;;;26.70;88.60;;;;;;5073705;28;20184;-74
2023/05/31 13:06:34;;;;;;;5.55;2.90;;;26.80;87.70;;;;;;5088421;28;20078;-75
2023/05/31 13:09:12;;;;;;;5.88;2.70;;;26.80;88.30;;;;;;5072487;28;20087;-74
2023/05/31 13:11:58;;;;;;;7.60;3.75;;;26.70;87.40;;;;;;5091077;28;20120;-75